Terminal Aerodrome Forecast
Issued by NWS Sterling, VA

Home | Current Version | Previous Version | Text Only | Print | Product List | Glossary On
Versions: 1 2 3 4 5 6 7 8 9 10 11 12 13 14 15 16 17 18 19 20 21 22 23 24 25
567
FTUS41 KLWX 051720
TAFBWI
TAF
KBWI 051720Z 0518/0624 04010KT P6SM -DZ OVC015
     FM052300 03006KT P6SM -SHRA OVC030
     FM060500 01007KT 4SM -SHRA BKN008 OVC012
     FM061300 02010KT 2SM SHRA OVC008
     FM062100 36007KT 5SM -SHRA OVC015=

USA.gov is the U.S. government's official web portal to all federal, state and local government web resources and services.